Terminal Aerodrome Forecast
Issued by NWS

Home | Current Version | Previous Version | Text Only | Print | Product List | Glossary On
Versions: 1 2 3 4 5 6 7 8 9 10 11 12 13 14 15 16 17 18 19
000
FTUS43 KAPX 051144
TAFMBL
TAF
KMBL 051144Z 0512/0612 09004KT 4SM -SHSN OVC025
     FM051500 29008KT 5SM -SHSN OVC027
     FM051800 28009KT 6SM -SHSN OVC030
     FM052200 27007KT P6SM BKN030
     FM060200 23005KT 6SM -SHSN OVC028
     FM060700 23013KT 5SM -SHSN OVC024
      AMD LTD TO CLD VIS AND WIND=

USA.gov is the U.S. government's official web portal to all federal, state and local government web resources and services.